Time;durP1;ratioP1;P1;durP2;ratioP2;P2;SDS_P1;SDS_P2;PMS_P1;PMS_P2;Temp;Humidity;BMP_temperature;BMP_pressure;BME280_temperature;BME280_humidity;BME280_pressure;Samples;Min_cycle;Max_cycle;Signal;HPM_P1;HPM_P2
2023/05/31 00:00:42;;;;;;;;;;;;;;;18.86;nan;102637.75;5043456;28;19971;-82
2023/05/31 00:03:07;;;;;;;;;;;;;;;18.78;nan;102627.34;5041496;28;20907;-82
2023/05/31 00:05:33;;;;;;;;;;;;;;;18.67;nan;102637.25;5038106;28;20300;-81
2023/05/31 00:07:58;;;;;;;;;;;;;;;18.60;nan;102636.63;5040411;28;19924;-82
2023/05/31 00:10:23;;;;;;;;;;;;;;;18.54;nan;102648.53;5037212;28;20300;-81
2023/05/31 00:12:49;;;;;;;;;;;;;;;18.48;nan;102644.09;5038560;28;20419;-81
2023/05/31 00:15:14;;;;;;;;;;;;;;;18.41;nan;102638.88;5042257;28;19925;-81
2023/05/31 00:17:39;;;;;;;;;;;;;;;18.37;nan;102637.75;5053096;28;20395;-81
2023/05/31 00:20:05;;;;;;;;;;;;;;;18.34;nan;102649.94;5038153;28;20415;-82
2023/05/31 00:22:30;;;;;;;;;;;;;;;18.31;nan;102650.47;5039084;28;19925;-81
2023/05/31 00:24:55;;;;;;;;;;;;;;;18.26;nan;102650.38;5042325;28;19917;-82
2023/05/31 00:27:21;;;;;;;;;;;;;;;18.22;nan;102653.84;5042108;28;19917;-82
2023/05/31 00:29:46;;;;;;;;;;;;;;;18.17;nan;102653.78;5038526;28;19917;-81
2023/05/31 00:32:11;;;;;;;;;;;;;;;18.13;nan;102658.88;5040927;28;19928;-81
2023/05/31 00:34:37;;;;;;;;;;;;;;;18.12;nan;102659.97;5041093;28;19931;-81
2023/05/31 00:37:02;;;;;;;;;;;;;;;18.09;nan;102652.34;5042660;28;20003;-82
2023/05/31 00:39:27;;;;;;;;;;;;;;;18.06;nan;102647.41;5037973;28;19921;-81
2023/05/31 00:41:53;;;;;;;;;;;;;;;18.01;nan;102644.66;5041763;28;19924;-81
2023/05/31 00:44:18;;;;;;;;;;;;;;;17.94;nan;102644.81;5044224;28;19917;-81
2023/05/31 00:46:43;;;;;;;;;;;;;;;17.87;nan;102649.63;5043570;28;19924;-81
2023/05/31 00:49:09;;;;;;;;;;;;;;;17.80;nan;102641.66;5044643;28;19920;-82
2023/05/31 00:51:35;;;;;;;;;;;;;;;17.73;nan;102645.63;5044332;28;19968;-82
2023/05/31 00:54:01;;;;;;;;;;;;;;;17.68;nan;102645.56;5046812;28;19967;-81
2023/05/31 00:56:27;;;;;;;;;;;;;;;17.68;nan;102648.25;5047098;28;19948;-81
2023/05/31 00:58:53;;;;;;;;;;;;;;;17.64;nan;102645.19;5047041;28;19917;-82
2023/05/31 01:01:19;;;;;;;;;;;;;;;17.59;nan;102647.00;5045632;28;19987;-81
2023/05/31 01:03:45;;;;;;;;;;;;;;;17.52;nan;102652.59;5043171;28;21228;-82
2023/05/31 01:06:10;;;;;;;;;;;;;;;17.45;nan;102649.25;5045474;28;19921;-81
2023/05/31 01:08:36;;;;;;;;;;;;;;;17.40;nan;102654.56;5044550;28;20339;-82
2023/05/31 01:11:06;;;;;;;;;;;;;;;17.36;nan;102654.25;5044688;28;19924;-81
2023/05/31 01:13:38;;;;;;;;;;;;;;;17.33;nan;102664.78;5042428;28;19925;-81
2023/05/31 01:16:03;;;;;;;;;;;;;;;17.27;nan;102663.06;5044619;28;19917;-82
2023/05/31 01:18:37;;;;;;;;;;;;;;;17.20;nan;102666.72;5045948;28;19986;-81
2023/05/31 01:21:03;;;;;;;;;;;;;;;17.13;nan;102663.38;5038177;28;20412;-81
2023/05/31 01:23:29;;;;;;;;;;;;;;;17.11;nan;102668.22;5042441;28;19916;-81
2023/05/31 01:26:02;;;;;;;;;;;;;;;17.10;nan;102668.47;5041683;28;19932;-82
2023/05/31 01:28:30;;;;;;;;;;;;;;;17.06;nan;102664.63;5043260;28;19924;-81
2023/05/31 01:30:58;;;;;;;;;;;;;;;17.00;nan;102671.00;5042552;28;19917;-81
2023/05/31 01:33:23;;;;;;;;;;;;;;;16.96;nan;102670.66;5041992;28;19920;-81
2023/05/31 01:35:49;;;;;;;;;;;;;;;16.93;nan;102668.44;5041270;28;19920;-81
2023/05/31 01:38:14;;;;;;;;;;;;;;;16.90;nan;102674.34;5041695;28;21287;-81
2023/05/31 01:40:40;;;;;;;;;;;;;;;16.87;nan;102672.09;5062050;28;20203;-81
2023/05/31 01:43:05;;;;;;;;;;;;;;;16.84;nan;102678.00;5044092;28;20011;-81
2023/05/31 01:45:31;;;;;;;;;;;;;;;16.83;nan;102677.19;5042115;28;19960;-81
2023/05/31 01:48:04;;;;;;;;;;;;;;;16.82;nan;102669.31;5042864;28;20019;-81
2023/05/31 01:50:31;;;;;;;;;;;;;;;16.80;nan;102666.03;5045942;28;19924;-81
2023/05/31 01:52:56;;;;;;;;;;;;;;;16.76;nan;102670.28;5039948;28;20111;-82
2023/05/31 01:55:22;;;;;;;;;;;;;;;16.73;nan;102663.50;5036816;28;19917;-81
2023/05/31 01:57:47;;;;;;;;;;;;;;;16.67;nan;102664.44;5037300;28;20114;-81
2023/05/31 02:00:14;;;;;;;;;;;;;;;16.59;nan;102662.91;5041828;28;20001;-81
2023/05/31 02:02:43;;;;;;;;;;;;;;;16.50;nan;102656.25;5044696;28;20368;-81
2023/05/31 02:05:11;;;;;;;;;;;;;;;16.43;nan;102658.28;5044883;28;19920;-81
2023/05/31 02:07:40;;;;;;;;;;;;;;;16.39;nan;102662.53;5041548;28;19948;-81
2023/05/31 02:10:06;;;;;;;;;;;;;;;16.34;nan;102657.03;5038840;28;20003;-81
2023/05/31 02:12:31;;;;;;;;;;;;;;;16.32;nan;102659.13;5043666;28;19990;-81
2023/05/31 02:14:57;;;;;;;;;;;;;;;16.28;nan;102657.97;5043891;28;20293;-81
2023/05/31 02:17:23;;;;;;;;;;;;;;;16.26;nan;102660.91;5040833;28;20357;-81
2023/05/31 02:19:52;;;;;;;;;;;;;;;16.25;nan;102664.69;5039630;28;19928;-81
2023/05/31 02:22:17;;;;;;;;;;;;;;;16.21;nan;102663.53;5042051;28;19920;-81
2023/05/31 02:24:43;;;;;;;;;;;;;;;16.18;nan;102668.59;5044255;28;19928;-81
2023/05/31 02:27:08;;;;;;;;;;;;;;;16.13;nan;102673.88;5040136;28;19921;-81
2023/05/31 02:29:33;;;;;;;;;;;;;;;16.10;nan;102672.47;5041685;28;19924;-81
2023/05/31 02:31:58;;;;;;;;;;;;;;;16.09;nan;102672.72;5042006;28;20125;-81
2023/05/31 02:34:26;;;;;;;;;;;;;;;16.04;nan;102661.78;5043128;28;19920;-81
2023/05/31 02:36:52;;;;;;;;;;;;;;;15.99;nan;102663.34;5043212;28;19924;-81
2023/05/31 02:39:17;;;;;;;;;;;;;;;15.95;nan;102662.16;5041977;28;20323;-81
2023/05/31 02:41:42;;;;;;;;;;;;;;;15.93;nan;102660.75;5040550;28;19990;-81
2023/05/31 02:44:08;;;;;;;;;;;;;;;15.90;nan;102663.94;5039595;28;19925;-81
2023/05/31 02:46:33;;;;;;;;;;;;;;;15.89;nan;102656.88;5042950;28;19924;-81
2023/05/31 02:48:59;;;;;;;;;;;;;;;15.85;nan;102659.25;5041328;28;19920;-81
2023/05/31 02:51:24;;;;;;;;;;;;;;;15.81;nan;102658.06;5043736;28;19937;-82
2023/05/31 02:53:49;;;;;;;;;;;;;;;15.77;nan;102650.66;5040558;28;20159;-81
2023/05/31 02:56:15;;;;;;;;;;;;;;;15.72;nan;102656.78;5044059;28;20136;-81
2023/05/31 02:58:40;;;;;;;;;;;;;;;15.67;nan;102656.66;5043568;28;19990;-81
2023/05/31 03:01:06;;;;;;;;;;;;;;;15.61;nan;102654.88;5044903;28;20922;-81
2023/05/31 03:03:31;;;;;;;;;;;;;;;15.55;nan;102647.69;5043202;28;19963;-81
2023/05/31 03:05:56;;;;;;;;;;;;;;;15.50;nan;102651.13;5035964;28;19917;-81
2023/05/31 03:08:22;;;;;;;;;;;;;;;15.52;nan;102656.28;5059190;28;19939;-81
2023/05/31 03:10:47;;;;;;;;;;;;;;;15.50;nan;102647.59;5043687;28;20395;-81
2023/05/31 03:13:12;;;;;;;;;;;;;;;15.48;nan;102652.41;5044369;28;20629;-82
2023/05/31 03:15:38;;;;;;;;;;;;;;;15.42;nan;102646.03;5039371;28;19974;-81
2023/05/31 03:18:03;;;;;;;;;;;;;;;15.37;nan;102640.53;5041724;28;20289;-81
2023/05/31 03:20:30;;;;;;;;;;;;;;;15.37;nan;102641.34;5043924;28;20006;-81
2023/05/31 03:22:55;;;;;;;;;;;;;;;15.39;nan;102651.91;5041891;28;19917;-81
2023/05/31 03:25:21;;;;;;;;;;;;;;;15.38;nan;102643.00;5039886;28;19963;-81
2023/05/31 03:27:46;;;;;;;;;;;;;;;15.36;nan;102638.88;5038801;28;19917;-81
2023/05/31 03:30:12;;;;;;;;;;;;;;;15.34;nan;102636.41;5042858;28;19942;-81
2023/05/31 03:32:37;;;;;;;;;;;;;;;15.32;nan;102640.41;5042064;28;19975;-81
2023/05/31 03:35:03;;;;;;;;;;;;;;;15.23;nan;102639.09;5040600;28;20296;-80
2023/05/31 03:37:28;;;;;;;;;;;;;;;15.20;nan;102642.28;5038143;28;19925;-81
2023/05/31 03:39:53;;;;;;;;;;;;;;;15.19;nan;102644.16;5038234;28;19986;-81
2023/05/31 03:42:19;;;;;;;;;;;;;;;15.19;nan;102644.16;5041624;28;19927;-81
2023/05/31 03:44:44;;;;;;;;;;;;;;;15.18;nan;102639.81;5039928;28;19926;-82
2023/05/31 03:47:10;;;;;;;;;;;;;;;15.22;nan;102643.69;5040393;28;19929;-82
2023/05/31 03:49:36;;;;;;;;;;;;;;;15.33;nan;102650.97;5039561;28;19916;-81
2023/05/31 03:52:01;;;;;;;;;;;;;;;15.45;nan;102645.59;5037149;28;19931;-81
2023/05/31 03:54:29;;;;;;;;;;;;;;;15.57;nan;102648.28;5034899;28;19928;-81
2023/05/31 03:56:54;;;;;;;;;;;;;;;15.69;nan;102643.75;5037345;28;20041;-81
2023/05/31 03:59:20;;;;;;;;;;;;;;;15.83;nan;102650.53;5035565;28;20012;-81
2023/05/31 04:01:45;;;;;;;;;;;;;;;15.96;nan;102652.97;5038391;28;20328;-82
2023/05/31 04:04:10;;;;;;;;;;;;;;;16.09;nan;102657.31;5040066;28;19956;-82
2023/05/31 04:06:36;;;;;;;;;;;;;;;16.17;nan;102658.84;5043511;28;19916;-82
2023/05/31 04:09:02;;;;;;;;;;;;;;;16.25;nan;102656.56;5042005;28;20304;-82
2023/05/31 04:11:27;;;;;;;;;;;;;;;16.36;nan;102660.31;5036680;28;19927;-82
2023/05/31 04:13:53;;;;;;;;;;;;;;;16.47;nan;102661.31;5036155;28;20316;-81
2023/05/31 04:16:18;;;;;;;;;;;;;;;16.54;nan;102662.84;5041553;28;20369;-82
2023/05/31 04:18:44;;;;;;;;;;;;;;;16.65;nan;102652.19;5041440;28;20300;-81
2023/05/31 04:21:09;;;;;;;;;;;;;;;16.75;nan;102657.81;5037609;28;19918;-81
2023/05/31 04:23:36;;;;;;;;;;;;;;;16.86;nan;102643.41;5038698;28;19916;-81
2023/05/31 04:26:02;;;;;;;;;;;;;;;16.96;nan;102638.16;5040792;28;19965;-81
2023/05/31 04:28:29;;;;;;;;;;;;;;;17.06;nan;102643.78;5040320;28;20380;-81
2023/05/31 04:30:56;;;;;;;;;;;;;;;17.15;nan;102636.88;5039051;28;20360;-82
2023/05/31 04:33:22;;;;;;;;;;;;;;;17.25;nan;102644.34;5055999;28;20282;-81
2023/05/31 04:35:48;;;;;;;;;;;;;;;17.34;nan;102636.59;5038471;28;19923;-82
2023/05/31 04:38:14;;;;;;;;;;;;;;;17.41;nan;102637.25;5038938;28;19916;-82
2023/05/31 04:40:40;;;;;;;;;;;;;;;17.49;nan;102636.84;5038169;28;19945;-81
2023/05/31 04:43:06;;;;;;;;;;;;;;;17.58;nan;102632.63;5040474;28;19920;-82
2023/05/31 04:45:32;;;;;;;;;;;;;;;17.67;nan;102643.88;5036049;28;19925;-81
2023/05/31 04:47:57;;;;;;;;;;;;;;;17.77;nan;102633.19;5038701;28;19971;-82
2023/05/31 04:50:24;;;;;;;;;;;;;;;17.88;nan;102637.69;5040399;28;20396;-81
2023/05/31 04:52:51;;;;;;;;;;;;;;;17.95;nan;102638.31;5042091;28;20020;-82
2023/05/31 04:55:16;;;;;;;;;;;;;;;18.06;nan;102634.66;5036164;28;19985;-81
2023/05/31 04:57:42;;;;;;;;;;;;;;;18.16;nan;102625.03;5037138;28;20046;-82
2023/05/31 05:00:14;;;;;;;;;;;;;;;18.27;nan;102626.78;5042448;28;19923;-81
2023/05/31 05:02:39;;;;;;;;;;;;;;;18.39;nan;102627.47;5039152;28;19925;-81
2023/05/31 05:05:04;;;;;;;;;;;;;;;18.50;nan;102628.41;5039602;28;20134;-81
2023/05/31 05:07:30;;;;;;;;;;;;;;;18.62;nan;102629.03;5036998;28;19964;-82
2023/05/31 05:09:55;;;;;;;;;;;;;;;18.77;nan;102626.50;5037939;28;19928;-82
2023/05/31 05:12:20;;;;;;;;;;;;;;;18.91;nan;102619.59;5040074;28;19928;-81
2023/05/31 05:14:46;;;;;;;;;;;;;;;19.02;nan;102626.72;5039864;28;19921;-82
2023/05/31 05:17:11;;;;;;;;;;;;;;;19.15;nan;102628.19;5037195;28;20395;-81
2023/05/31 05:19:36;;;;;;;;;;;;;;;19.28;nan;102624.22;5038226;28;19916;-82
2023/05/31 05:22:02;;;;;;;;;;;;;;;19.37;nan;102622.63;5039894;28;20395;-82
2023/05/31 05:24:27;;;;;;;;;;;;;;;19.45;nan;102624.06;5040992;28;19931;-82
2023/05/31 05:26:53;;;;;;;;;;;;;;;19.52;nan;102622.75;5039434;28;19920;-82
2023/05/31 05:29:18;;;;;;;;;;;;;;;19.65;nan;102629.66;5035208;28;19963;-82
2023/05/31 05:31:43;;;;;;;;;;;;;;;19.78;nan;102623.75;5039341;28;19921;-82
2023/05/31 05:34:09;;;;;;;;;;;;;;;19.89;nan;102622.69;5045170;28;20430;-82
2023/05/31 05:36:36;;;;;;;;;;;;;;;20.01;nan;102619.75;5045190;28;19923;-82
2023/05/31 05:39:05;;;;;;;;;;;;;;;20.12;nan;102626.91;5041358;28;20395;-82
2023/05/31 05:41:31;;;;;;;;;;;;;;;20.23;nan;102616.84;5039551;28;20365;-82
2023/05/31 05:43:56;;;;;;;;;;;;;;;20.35;nan;102619.34;5043884;28;19927;-82
2023/05/31 05:46:21;;;;;;;;;;;;;;;20.49;nan;102617.78;5044148;28;20191;-82
2023/05/31 05:48:47;;;;;;;;;;;;;;;20.64;nan;102616.94;5041491;28;20007;-82
2023/05/31 05:51:12;;;;;;;;;;;;;;;20.81;nan;102621.06;5042248;28;19917;-82
2023/05/31 05:53:37;;;;;;;;;;;;;;;20.96;nan;102608.53;5044765;28;19983;-82
2023/05/31 05:56:03;;;;;;;;;;;;;;;21.10;nan;102609.63;5043833;28;20580;-82
2023/05/31 05:58:28;;;;;;;;;;;;;;;21.24;nan;102615.34;5040217;28;19917;-82
2023/05/31 06:00:54;;;;;;;;;;;;;;;21.38;nan;102605.53;5040707;28;19917;-82
2023/05/31 06:03:19;;;;;;;;;;;;;;;21.53;nan;102608.22;5041085;28;19917;-82
2023/05/31 06:05:44;;;;;;;;;;;;;;;21.64;nan;102606.28;5039329;28;19925;-82
2023/05/31 06:08:10;;;;;;;;;;;;;;;21.79;nan;102600.78;5040160;28;20217;-82
2023/05/31 06:10:36;;;;;;;;;;;;;;;21.92;nan;102602.09;5039115;28;20296;-82
2023/05/31 06:13:02;;;;;;;;;;;;;;;22.03;nan;102607.22;5040695;28;19936;-82
2023/05/31 06:15:28;;;;;;;;;;;;;;;22.11;nan;102605.03;5039228;28;20153;-82
2023/05/31 06:17:53;;;;;;;;;;;;;;;22.13;nan;102602.84;5041934;28;19920;-82
2023/05/31 06:20:18;;;;;;;;;;;;;;;22.14;nan;102601.75;5040403;28;20415;-82
2023/05/31 06:22:44;;;;;;;;;;;;;;;22.18;nan;102595.44;5040531;28;19993;-82
2023/05/31 06:25:09;;;;;;;;;;;;;;;22.36;nan;102598.59;5038898;28;20395;-82
2023/05/31 06:27:35;;;;;;;;;;;;;;;22.63;nan;102603.63;5041853;28;19925;-82
2023/05/31 06:30:00;;;;;;;;;;;;;;;22.84;nan;102599.66;5041698;28;19924;-82
2023/05/31 06:32:26;;;;;;;;;;;;;;;22.94;nan;102587.81;5044510;28;20027;-82
2023/05/31 06:34:52;;;;;;;;;;;;;;;22.98;nan;102589.72;5040526;28;19970;-82
2023/05/31 06:37:18;;;;;;;;;;;;;;;22.98;nan;102586.97;5040228;28;20422;-82
2023/05/31 06:39:43;;;;;;;;;;;;;;;23.06;nan;102585.53;5038671;28;19925;-82
2023/05/31 06:42:09;;;;;;;;;;;;;;;23.05;nan;102590.16;5043476;28;20071;-82
2023/05/31 06:44:34;;;;;;;;;;;;;;;23.18;nan;102583.22;5038616;28;19917;-82
2023/05/31 06:47:00;;;;;;;;;;;;;;;23.35;nan;102583.59;5041055;28;19920;-83
2023/05/31 06:49:25;;;;;;;;;;;;;;;23.52;nan;102581.22;5042571;28;20384;-82
2023/05/31 06:51:50;;;;;;;;;;;;;;;23.62;nan;102583.03;5038568;28;20036;-82
2023/05/31 06:54:16;;;;;;;;;;;;;;;23.67;nan;102582.97;5036422;28;19955;-82
2023/05/31 06:56:41;;;;;;;;;;;;;;;23.76;nan;102586.69;5038788;28;19921;-82
2023/05/31 06:59:07;;;;;;;;;;;;;;;23.81;nan;102586.63;5039517;28;19924;-82
2023/05/31 07:01:33;;;;;;;;;;;;;;;23.96;nan;102582.06;5042721;28;19925;-82
2023/05/31 07:03:58;;;;;;;;;;;;;;;24.18;nan;102585.03;5047998;28;20015;-81
2023/05/31 07:06:24;;;;;;;;;;;;;;;24.44;nan;102581.97;5042871;28;19927;-82
2023/05/31 07:08:50;;;;;;;;;;;;;;;24.56;nan;102579.56;5055670;28;19969;-82
2023/05/31 07:11:15;;;;;;;;;;;;;;;24.68;nan;102578.00;5040606;28;19956;-82
2023/05/31 07:13:40;;;;;;;;;;;;;;;24.78;nan;102571.53;5040975;28;20384;-82
2023/05/31 07:16:06;;;;;;;;;;;;;;;24.90;nan;102579.28;5040293;28;19991;-82
2023/05/31 07:18:31;;;;;;;;;;;;;;;25.05;nan;102570.00;5044019;28;19932;-81
2023/05/31 07:20:57;;;;;;;;;;;;;;;25.23;nan;102572.66;5044467;28;19921;-82
2023/05/31 07:23:24;;;;;;;;;;;;;;;25.42;nan;102569.03;5038635;28;19921;-82
2023/05/31 07:25:49;;;;;;;;;;;;;;;25.65;nan;102558.94;5039822;28;19921;-83
2023/05/31 07:28:14;;;;;;;;;;;;;;;25.82;nan;102556.41;5034534;28;19925;-83
2023/05/31 07:30:40;;;;;;;;;;;;;;;25.94;nan;102556.69;5037648;28;20105;-82
2023/05/31 07:33:05;;;;;;;;;;;;;;;26.08;nan;102559.41;5035211;28;19931;-83
2023/05/31 07:35:30;;;;;;;;;;;;;;;26.25;nan;102561.50;5037984;28;19920;-83
2023/05/31 07:37:56;;;;;;;;;;;;;;;26.37;nan;102557.09;5039475;28;20404;-83
2023/05/31 07:40:21;;;;;;;;;;;;;;;26.49;nan;102551.03;5037516;28;20263;-82
2023/05/31 07:42:46;;;;;;;;;;;;;;;26.56;nan;102548.66;5034726;28;19921;-82
2023/05/31 07:45:11;;;;;;;;;;;;;;;26.59;nan;102548.06;5031461;28;19925;-83
2023/05/31 07:47:37;;;;;;;;;;;;;;;26.67;nan;102552.78;5038737;28;19925;-84
2023/05/31 07:50:03;;;;;;;;;;;;;;;26.77;nan;102555.28;5043440;28;19927;-84
2023/05/31 07:52:29;;;;;;;;;;;;;;;26.93;nan;102543.88;5043111;28;19925;-84
2023/05/31 07:54:54;;;;;;;;;;;;;;;27.08;nan;102537.97;5048633;28;20430;-84
2023/05/31 07:57:19;;;;;;;;;;;;;;;27.20;nan;102537.41;5043149;28;19917;-83
2023/05/31 07:59:45;;;;;;;;;;;;;;;27.32;nan;102537.63;5040584;28;19920;-84
2023/05/31 08:02:10;;;;;;;;;;;;;;;27.42;nan;102537.31;5044560;28;19913;-85
2023/05/31 08:04:35;;;;;;;;;;;;;;;27.49;nan;102534.09;5042525;28;20047;-84
2023/05/31 08:07:01;;;;;;;;;;;;;;;27.64;nan;102523.44;5042123;28;19939;-85
2023/05/31 08:09:26;;;;;;;;;;;;;;;27.85;nan;102523.66;5058671;28;20391;-83
2023/05/31 08:11:52;;;;;;;;;;;;;;;27.99;nan;102518.78;5045526;28;19975;-84
2023/05/31 08:14:17;;;;;;;;;;;;;;;28.05;nan;102515.91;5043693;28;20270;-84
2023/05/31 08:16:43;;;;;;;;;;;;;;;28.06;nan;102517.53;5040566;28;20213;-84
2023/05/31 08:19:08;;;;;;;;;;;;;;;28.05;nan;102521.41;5038542;28;19925;-84
2023/05/31 08:21:36;;;;;;;;;;;;;;;28.07;nan;102517.19;5042599;28;19912;-84
2023/05/31 08:24:02;;;;;;;;;;;;;;;28.16;nan;102514.41;5042752;28;19917;-85
2023/05/31 08:26:27;;;;;;;;;;;;;;;28.27;nan;102518.50;5043964;28;20289;-85
2023/05/31 08:28:53;;;;;;;;;;;;;;;28.42;nan;102509.72;5043003;28;19936;-84
2023/05/31 08:31:18;;;;;;;;;;;;;;;28.60;nan;102510.50;5044789;28;20040;-84
2023/05/31 08:33:54;;;;;;;;;;;;;;;28.70;nan;102512.91;5046311;28;19921;-83
2023/05/31 08:36:19;;;;;;;;;;;;;;;28.70;nan;102507.38;5038892;28;20309;-84
2023/05/31 08:38:45;;;;;;;;;;;;;;;28.78;nan;102511.25;5043513;28;19920;-83
2023/05/31 08:41:10;;;;;;;;;;;;;;;28.89;nan;102513.34;5041844;28;19970;-84
2023/05/31 08:43:35;;;;;;;;;;;;;;;29.01;nan;102512.66;5044432;28;20296;-84
2023/05/31 08:46:03;;;;;;;;;;;;;;;29.07;nan;102502.25;5040234;28;20296;-84
2023/05/31 08:48:43;;;;;;;;;;;;;;;29.06;nan;102506.13;5040137;28;20003;-84
2023/05/31 08:51:09;;;;;;;;;;;;;;;29.19;nan;102508.69;5045508;28;19925;-84
2023/05/31 08:53:34;;;;;;;;;;;;;;;29.38;nan;102505.50;5041744;28;20083;-84
2023/05/31 08:56:01;;;;;;;;;;;;;;;29.56;nan;102502.66;5042627;28;19923;-84
2023/05/31 08:58:28;;;;;;;;;;;;;;;29.73;nan;102497.00;5039014;28;20385;-84
2023/05/31 09:00:53;;;;;;;;;;;;;;;29.87;nan;102491.22;5042041;28;20372;-85
2023/05/31 09:03:19;;;;;;;;;;;;;;;30.02;nan;102490.59;5044363;28;19932;-84
2023/05/31 09:05:44;;;;;;;;;;;;;;;30.09;nan;102488.13;5045368;28;20019;-83
2023/05/31 09:08:10;;;;;;;;;;;;;;;30.02;nan;102483.13;5045449;28;19942;-85
2023/05/31 09:10:36;;;;;;;;;;;;;;;30.06;nan;102486.84;5047925;28;19962;-84
2023/05/31 09:13:02;;;;;;;;;;;;;;;29.91;nan;102479.13;5043700;28;19925;-84
2023/05/31 09:15:27;;;;;;;;;;;;;;;29.93;nan;102485.13;5047459;28;20023;-85
2023/05/31 09:17:55;;;;;;;;;;;;;;;30.05;nan;102478.91;5046270;28;19916;-85
2023/05/31 09:20:29;;;;;;;;;;;;;;;30.18;nan;102483.34;5045956;28;19964;-84
2023/05/31 09:22:55;;;;;;;;;;;;;;;30.42;nan;102484.53;5045189;28;20358;-84
2023/05/31 09:25:21;;;;;;;;;;;;;;;30.63;nan;102474.25;5046052;28;19935;-85
2023/05/31 09:27:46;;;;;;;;;;;;;;;30.88;nan;102481.44;5047939;28;20288;-84
2023/05/31 09:30:12;;;;;;;;;;;;;;;31.09;nan;102474.97;5044926;28;20004;-84
2023/05/31 09:32:38;;;;;;;;;;;;;;;31.26;nan;102466.47;5046587;28;19931;-84
2023/05/31 09:35:10;;;;;;;;;;;;;;;31.45;nan;102463.88;5045631;28;19929;-84
2023/05/31 09:37:41;;;;;;;;;;;;;;;31.54;nan;102463.75;5045129;28;20236;-85
2023/05/31 09:40:06;;;;;;;;;;;;;;;31.62;nan;102467.53;5048166;28;19920;-84
2023/05/31 09:42:32;;;;;;;;;;;;;;;31.75;nan;102469.13;5047506;28;20261;-84
2023/05/31 09:44:59;;;;;;;;;;;;;;;31.82;nan;102469.34;5047121;28;19924;-85
2023/05/31 09:47:25;;;;;;;;;;;;;;;31.91;nan;102461.69;5043991;28;20307;-84
2023/05/31 09:49:52;;;;;;;;;;;;;;;32.00;nan;102469.88;5043563;28;19928;-84
2023/05/31 09:52:22;;;;;;;;;;;;;;;32.10;nan;102461.81;5046577;28;19932;-84
2023/05/31 09:54:48;;;;;;;;;;;;;;;32.04;nan;102454.94;5041843;28;20451;-84
2023/05/31 09:57:28;;;;;;;;;;;;;;;31.95;nan;102450.69;5046433;28;20015;-84
2023/05/31 09:59:58;;;;;;;;;;;;;;;31.97;nan;102454.75;5046041;28;19925;-85
2023/05/31 10:02:24;;;;;;;;;;;;;;;32.11;nan;102449.56;5047579;28;20016;-84
2023/05/31 10:04:49;;;;;;;;;;;;;;;32.29;nan;102458.41;5045829;28;20008;-84
2023/05/31 10:07:15;;;;;;;;;;;;;;;32.43;nan;102457.97;5055684;28;20150;-85
2023/05/31 10:09:40;;;;;;;;;;;;;;;32.54;nan;102450.75;5044882;28;19975;-85
2023/05/31 10:12:06;;;;;;;;;;;;;;;32.71;nan;102455.13;5048861;28;20020;-85
2023/05/31 10:14:38;;;;;;;;;;;;;;;32.83;nan;102463.38;5049890;28;19917;-85
2023/05/31 10:17:05;;;;;;;;;;;;;;;32.89;nan;102458.38;5039623;28;19926;-84
2023/05/31 10:19:56;;;;;;;;;;;;;;;32.89;nan;102452.81;5045015;28;20019;-84
2023/05/31 10:22:23;;;;;;;;;;;;;;;32.94;nan;102444.22;5042780;28;20909;-85
2023/05/31 10:24:52;;;;;;;;;;;;;;;33.08;nan;102438.19;5045104;28;20308;-84
2023/05/31 10:27:21;;;;;;;;;;;;;;;33.21;nan;102437.69;5045960;28;19995;-84
2023/05/31 10:29:53;;;;;;;;;;;;;;;33.28;nan;102437.06;5048378;28;20269;-86
2023/05/31 10:32:22;;;;;;;;;;;;;;;33.37;nan;102432.13;5043678;28;20292;-85
2023/05/31 10:34:49;;;;;;;;;;;;;;;33.45;nan;102439.47;5043411;28;20440;-85
2023/05/31 10:37:14;;;;;;;;;;;;;;;33.43;nan;102432.66;5046298;28;19917;-85
2023/05/31 10:39:47;;;;;;;;;;;;;;;33.50;nan;102430.03;5057284;28;19920;-86
2023/05/31 10:42:13;;;;;;;;;;;;;;;33.53;nan;102429.28;5044616;28;19923;-84
2023/05/31 10:44:53;;;;;;;;;;;;;;;33.56;nan;102428.53;5045937;28;20168;-84
2023/05/31 10:47:24;;;;;;;;;;;;;;;33.53;nan;102423.72;5042810;28;19931;-84
2023/05/31 10:49:52;;;;;;;;;;;;;;;33.50;nan;102428.03;5047859;28;19929;-84
2023/05/31 10:52:18;;;;;;;;;;;;;;;33.50;nan;102421.69;5045981;28;19986;-86
2023/05/31 10:54:43;;;;;;;;;;;;;;;33.57;nan;102419.84;5043719;28;19933;-84
2023/05/31 10:57:10;;;;;;;;;;;;;;;33.66;nan;102411.31;5039953;28;19939;-86
2023/05/31 10:59:43;;;;;;;;;;;;;;;33.67;nan;102407.34;5044390;28;19956;-85
2023/05/31 11:02:10;;;;;;;;;;;;;;;33.76;nan;102405.16;5051181;28;19924;-86
2023/05/31 11:04:35;;;;;;;;;;;;;;;33.96;nan;102407.94;5047106;28;19990;-84
2023/05/31 11:07:14;;;;;;;;;;;;;;;34.22;nan;102400.47;5042698;28;20388;-85
2023/05/31 11:09:40;;;;;;;;;;;;;;;34.50;nan;102385.47;5041991;28;19967;-84
2023/05/31 11:12:06;;;;;;;;;;;;;;;34.69;nan;102379.81;5045749;28;20015;-85
2023/05/31 11:14:31;;;;;;;;;;;;;;;34.85;nan;102371.31;5046703;28;20162;-85
2023/05/31 11:17:12;;;;;;;;;;;;;;;34.92;nan;102384.53;5046418;28;19927;-85
2023/05/31 11:19:39;;;;;;;;;;;;;;;34.90;nan;102371.00;5043599;28;20450;-85
2023/05/31 11:22:09;;;;;;;;;;;;;;;34.91;nan;102380.97;5042417;28;20447;-86
2023/05/31 11:24:57;;;;;;;;;;;;;;;34.93;nan;102370.25;5046347;28;19917;-84
2023/05/31 11:27:36;;;;;;;;;;;;;;;34.95;nan;102367.88;5041914;28;19920;-85
2023/05/31 11:30:03;;;;;;;;;;;;;;;34.98;nan;102369.09;5043070;28;19920;-85
2023/05/31 11:32:35;;;;;;;;;;;;;;;35.09;nan;102364.50;5046114;28;19986;-85
2023/05/31 11:35:03;;;;;;;;;;;;;;;35.20;nan;102359.88;5042533;28;19928;-85
2023/05/31 11:37:33;;;;;;;;;;;;;;;35.37;nan;102352.91;5042495;28;20012;-85
2023/05/31 11:40:12;;;;;;;;;;;;;;;35.55;nan;102356.75;5039158;28;20000;-85
2023/05/31 11:42:44;;;;;;;;;;;;;;;35.71;nan;102359.28;5040878;28;19970;-86
2023/05/31 11:45:10;;;;;;;;;;;;;;;35.84;nan;102357.06;5043327;28;19927;-85
2023/05/31 11:47:45;;;;;;;;;;;;;;;35.99;nan;102351.22;5050416;28;19921;-84
2023/05/31 11:50:20;;;;;;;;;;;;;;;36.06;nan;102346.88;5041405;28;20522;-85
2023/05/31 11:52:45;;;;;;;;;;;;;;;36.09;nan;102349.72;5045199;28;20027;-86
2023/05/31 11:55:12;;;;;;;;;;;;;;;36.10;nan;102337.38;5044615;28;20015;-86
2023/05/31 11:57:42;;;;;;;;;;;;;;;36.09;nan;102343.31;5038185;28;19917;-85
2023/05/31 12:00:11;;;;;;;;;;;;;;;36.12;nan;102332.22;5045893;28;20721;-85
2023/05/31 12:02:36;;;;;;;;;;;;;;;36.18;nan;102330.66;5046633;28;19913;-86
2023/05/31 12:05:04;;;;;;;;;;;;;;;36.23;nan;102321.13;5045792;28;19990;-87
2023/05/31 12:07:30;;;;;;;;;;;;;;;36.33;nan;102328.81;5044158;28;19917;-86
2023/05/31 12:09:55;;;;;;;;;;;;;;;36.31;nan;102329.22;5046560;28;19973;-85
2023/05/31 12:12:21;;;;;;;;;;;;;;;36.22;nan;102320.31;5040037;28;19932;-85
2023/05/31 12:14:51;;;;;;;;;;;;;;;36.24;nan;102317.94;5045683;28;20054;-85
2023/05/31 12:17:16;;;;;;;;;;;;;;;36.34;nan;102321.25;5044291;28;19986;-85
2023/05/31 12:19:41;;;;;;;;;;;;;;;36.28;nan;102309.63;5044838;28;19994;-86
2023/05/31 12:22:07;;;;;;;;;;;;;;;36.07;nan;102313.03;5046065;28;20457;-86
2023/05/31 12:24:32;;;;;;;;;;;;;;;35.83;nan;102313.59;5043682;28;20438;-86
2023/05/31 12:26:57;;;;;;;;;;;;;;;35.75;nan;102311.94;5045299;28;19996;-85
2023/05/31 12:29:30;;;;;;;;;;;;;;;35.83;nan;102305.22;5046781;28;20392;-85
2023/05/31 12:32:05;;;;;;;;;;;;;;;35.82;nan;102303.63;5038288;28;20015;-87
2023/05/31 12:34:35;;;;;;;;;;;;;;;35.73;nan;102299.19;5042182;28;20289;-85
2023/05/31 12:37:07;;;;;;;;;;;;;;;35.73;nan;102293.59;5043282;28;19938;-85
2023/05/31 12:39:36;;;;;;;;;;;;;;;35.87;nan;102286.56;5039905;28;20395;-85
2023/05/31 12:42:01;;;;;;;;;;;;;;;35.97;nan;102283.06;5041774;28;19928;-85
2023/05/31 12:44:28;;;;;;;;;;;;;;;36.15;nan;102277.63;5047584;28;19924;-85
2023/05/31 12:47:03;;;;;;;;;;;;;;;36.30;nan;102274.56;5045548;28;19924;-85
2023/05/31 12:49:30;;;;;;;;;;;;;;;36.46;nan;102276.28;5045181;28;19925;-85
2023/05/31 12:51:58;;;;;;;;;;;;;;;36.44;nan;102271.06;5044752;28;20002;-85
2023/05/31 12:54:25;;;;;;;;;;;;;;;36.48;nan;102274.69;5046237;28;20376;-85